Dawson Community Airport
KGDV : now visible

Airfield :











YOU CAN JOIN US ON...

 
LOGIN :

Register | Disclaimer

   EN    FR    IT 

 









Legend :    VFR   Marginal VFR   IFR   Intensive IFR   Very Intensive IFR
Visi :
Ceiling :
>= 8 km
>= 3000ft
5 to 8 km
1000 to 3000 ft
1500m to 5 km
500 to 1000 ft
800 to 1500m
200 to 500 ft
< 800m
< 200 ft
Symbols :   Thunderstorms  Fog  Heavy snow  Heavy precipitations  Wind > 20 kt






- Airport Elevation : 2458 ft


KGDV - Dawson Community

CURRENT METAR :
  • 172156Z AUTO 32009KT 10SM CLR 01/M07 A3006 RMK AO2 SLP209 T00061067 FZRANO

EXPIRED METARs :
  • 172056Z AUTO 33008KT 10SM CLR 01/M07 A3005 RMK AO2 SLP203 T00061067 55000 FZRANO
  • 171956Z AUTO 31006KT 10SM CLR 01/M06 A3005 RMK AO2 SLP202 T00061056 FZRANO

TAF KGDV
Valid from the 17 at 18:00 until the 18 at 18:00 UTC


171720Z 1718/1818 32007KT P6SM SCT035
PROB30 1804/1807 4SM -SN BR OVC025
FM180700 35012KT P6SM BKN015
FM181400 36008KT P6SM OVC025



MET'MAP, your aeronautical weather chart ! - Copyright ORBIFLY December 2007 - Disclaimer

ORBIFLY MET'MAP TEAM :

Programming & Development : Alexandra Zaïnal
Concept & original design : Baudouin d'Aumeries
Assistance for programming : Marc-Olivier Méhu
Technical & hardware support : Manuel Goepfert

Contact : metmap@orbifly.com




SOURCES & CREDITS :

   NOAA       Earth
Advisory